Time;durP1;ratioP1;P1;durP2;ratioP2;P2;SDS_P1;SDS_P2;PMS_P1;PMS_P2;Temp;Humidity;BMP_temperature;BMP_pressure;BME280_temperature;BME280_humidity;BME280_pressure;Samples;Min_cycle;Max_cycle;Signal;HPM_P1;HPM_P2
2021/04/13 00:02:38;;;;;;;0.80;0.32;;;11.60;41.40;;;;;;5079042;28;20059;-51
2021/04/13 00:05:11;;;;;;;0.38;0.30;;;11.70;41.70;;;;;;5069018;28;20097;-55
2021/04/13 00:07:39;;;;;;;0.65;0.20;;;11.60;45.00;;;;;;5077370;28;20032;-53
2021/04/13 00:10:16;;;;;;;0.40;0.22;;;11.70;44.30;;;;;;5071208;28;20063;-55
2021/04/13 00:12:42;;;;;;;0.30;0.20;;;11.70;41.50;;;;;;5033491;28;20040;-53
2021/04/13 00:15:14;;;;;;;0.38;0.38;;;11.70;43.20;;;;;;5066005;28;20040;-53
2021/04/13 00:17:42;;;;;;;0.82;0.20;;;11.60;43.80;;;;;;5066209;28;20045;-54
2021/04/13 00:20:26;;;;;;;1.30;0.30;;;11.60;41.20;;;;;;5065876;28;20043;-51
2021/04/13 00:22:53;;;;;;;0.47;0.28;;;11.60;40.50;;;;;;5072751;28;20439;-51
2021/04/13 00:25:44;;;;;;;0.88;0.30;;;11.40;40.90;;;;;;5071802;28;20066;-55
2021/04/13 00:28:10;;;;;;;0.20;0.20;;;11.40;38.20;;;;;;5064049;28;20370;-50
2021/04/13 00:30:46;;;;;;;1.90;0.20;;;11.40;43.80;;;;;;5062784;28;20033;-50
2021/04/13 00:33:17;;;;;;;1.92;0.20;;;11.50;42.30;;;;;;5014831;28;20048;-50
2021/04/13 00:35:48;;;;;;;0.10;0.10;;;11.50;41.30;;;;;;5062269;28;20161;-51
2021/04/13 00:38:18;;;;;;;0.75;0.20;;;11.40;39.40;;;;;;5068463;28;20116;-50
2021/04/13 00:40:48;;;;;;;0.20;0.20;;;11.50;40.90;;;;;;5079128;28;20055;-51
2021/04/13 00:43:16;;;;;;;1.30;0.28;;;11.40;38.50;;;;;;5080034;28;20138;-50
2021/04/13 00:45:46;;;;;;;0.17;0.17;;;11.40;40.20;;;;;;5061585;28;20123;-51
2021/04/13 00:48:16;;;;;;;0.32;0.20;;;11.40;39.30;;;;;;5069627;28;20031;-52
2021/04/13 00:50:45;;;;;;;0.43;0.10;;;11.40;41.40;;;;;;5066049;28;20051;-49
2021/04/13 00:53:17;;;;;;;1.27;0.10;;;11.50;41.80;;;;;;5068431;28;20041;-50
2021/04/13 00:55:53;;;;;;;0.88;0.20;;;11.50;42.10;;;;;;5063094;28;20486;-51
2021/04/13 00:58:22;;;;;;;1.45;0.30;;;11.40;41.40;;;;;;5062715;28;20024;-51
2021/04/13 01:01:06;;;;;;;0.47;0.20;;;11.40;41.90;;;;;;5061601;28;20032;-53
2021/04/13 01:03:32;;;;;;;0.93;0.10;;;11.40;41.80;;;;;;5068676;28;20449;-52
2021/04/13 01:05:59;;;;;;;2.38;0.28;;;11.40;43.30;;;;;;5067029;28;20040;-56
2021/04/13 01:08:39;;;;;;;0.52;0.30;;;11.40;42.00;;;;;;5071312;28;20115;-55
2021/04/13 01:11:18;;;;;;;0.73;0.28;;;11.40;42.90;;;;;;5070564;28;20490;-51
2021/04/13 01:13:46;;;;;;;0.20;0.10;;;11.40;43.30;;;;;;5019548;28;20490;-51
2021/04/13 01:16:13;;;;;;;0.75;0.35;;;11.30;42.80;;;;;;5077433;28;20055;-51
2021/04/13 01:18:42;;;;;;;0.20;0.10;;;11.40;42.70;;;;;;5062009;28;20109;-52
2021/04/13 01:21:42;;;;;;;0.55;0.20;;;11.40;42.90;;;;;;5059469;28;20091;-51
2021/04/13 01:24:21;;;;;;;2.55;0.68;;;11.40;43.20;;;;;;5057171;28;20439;-50
2021/04/13 01:26:49;;;;;;;0.30;0.30;;;11.40;44.00;;;;;;5070650;28;20040;-52
2021/04/13 01:29:19;;;;;;;0.25;0.25;;;11.40;44.40;;;;;;5053557;28;20047;-55
2021/04/13 01:31:54;;;;;;;0.75;0.40;;;11.40;44.30;;;;;;5064126;28;20083;-52
2021/04/13 01:34:26;;;;;;;0.43;0.20;;;11.40;44.00;;;;;;5068565;28;20040;-50
2021/04/13 01:43:25;;;;;;;1.00;0.10;;;11.40;42.20;;;;;;5017398;28;20059;-51
2021/04/13 01:45:51;;;;;;;0.35;0.20;;;11.20;42.30;;;;;;5062982;28;20079;-51
2021/04/13 01:48:19;;;;;;;0.60;0.30;;;11.20;41.30;;;;;;5070022;28;20093;-51
2021/04/13 01:50:57;;;;;;;1.00;0.20;;;11.20;42.10;;;;;;5069001;28;20113;-54
2021/04/13 01:53:25;;;;;;;0.43;0.20;;;11.30;42.70;;;;;;5066281;28;20064;-51
2021/04/13 01:55:54;;;;;;;0.95;0.30;;;11.20;43.60;;;;;;5071190;28;20043;-51
2021/04/13 01:58:27;;;;;;;0.43;0.35;;;11.20;44.30;;;;;;5065569;28;20409;-50
2021/04/13 02:00:58;;;;;;;0.40;0.30;;;11.30;43.20;;;;;;5066861;28;20110;-51
2021/04/13 02:03:32;;;;;;;1.17;0.68;;;11.40;44.00;;;;;;5065948;28;20046;-51
2021/04/13 02:06:01;;;;;;;0.93;0.40;;;11.20;44.90;;;;;;5059709;28;20052;-52
2021/04/13 02:08:36;;;;;;;1.48;0.32;;;11.30;45.60;;;;;;5067895;28;20116;-54
2021/04/13 02:11:09;;;;;;;2.00;0.90;;;11.20;46.00;;;;;;5059148;28;20064;-52
2021/04/13 02:13:40;;;;;;;1.42;1.33;;;11.30;48.40;;;;;;5065394;28;20111;-52
2021/04/13 02:16:23;;;;;;;1.50;1.30;;;11.30;50.10;;;;;;5061643;28;20043;-51
2021/04/13 02:18:51;;;;;;;2.70;1.20;;;11.30;50.80;;;;;;5034712;28;20033;-49
2021/04/13 02:21:20;;;;;;;2.20;1.58;;;11.30;52.10;;;;;;5059911;28;20040;-51
2021/04/13 02:23:55;;;;;;;2.30;1.52;;;11.20;52.90;;;;;;5062371;28;20036;-52
2021/04/13 02:26:22;;;;;;;2.88;1.55;;;11.20;54.50;;;;;;5062072;28;20093;-52
2021/04/13 02:28:50;;;;;;;3.22;1.95;;;11.20;54.20;;;;;;5065247;28;20067;-53
2021/04/13 02:31:36;;;;;;;1.88;1.50;;;11.20;54.50;;;;;;5055543;28;20045;-52
2021/04/13 02:34:19;;;;;;;4.18;1.70;;;11.20;55.30;;;;;;5070106;28;20101;-55
2021/04/13 02:36:52;;;;;;;2.17;1.75;;;11.20;55.80;;;;;;5029595;28;20431;-52
2021/04/13 02:39:20;;;;;;;4.93;1.70;;;11.20;56.00;;;;;;5070648;28;20159;-54
2021/04/13 02:41:55;;;;;;;1.85;1.67;;;11.10;56.00;;;;;;5058460;28;20045;-53
2021/04/13 02:44:23;;;;;;;2.58;2.38;;;11.20;57.00;;;;;;5045864;28;20037;-55
2021/04/13 02:46:56;;;;;;;3.60;2.72;;;11.00;57.30;;;;;;5067698;28;20086;-54
2021/04/13 02:49:24;;;;;;;5.13;2.78;;;11.00;59.80;;;;;;5073028;28;20044;-54
2021/04/13 02:51:59;;;;;;;4.05;3.65;;;11.00;60.20;;;;;;5056082;28;20047;-51
2021/04/13 02:54:29;;;;;;;3.92;3.53;;;11.00;61.80;;;;;;5069103;28;20056;-53
2021/04/13 02:57:00;;;;;;;8.30;7.50;;;11.00;62.70;;;;;;5071554;28;20052;-51
2021/04/13 02:59:30;;;;;;;8.13;7.40;;;11.10;66.80;;;;;;5063190;28;20043;-54
2021/04/13 03:02:05;;;;;;;11.45;10.35;;;11.00;69.90;;;;;;5066395;28;20043;-53
2021/04/13 03:04:35;;;;;;;;;;;11.00;72.30;;;;;;5063224;28;20033;-54
2021/04/13 03:07:01;;;;;;;10.95;9.88;;;11.00;77.10;;;;;;5064245;28;19927;-51
2021/04/13 03:09:28;;;;;;;10.27;9.27;;;11.00;72.70;;;;;;5066206;28;20044;-53
2021/04/13 03:12:00;;;;;;;11.13;10.02;;;11.00;74.40;;;;;;5066163;28;20382;-51
2021/04/13 03:14:33;;;;;;;10.25;9.35;;;10.90;75.90;;;;;;5061572;28;20041;-52
2021/04/13 03:17:00;;;;;;;10.65;9.55;;;10.90;75.60;;;;;;5069468;28;21576;-49
2021/04/13 03:19:29;;;;;;;10.25;9.25;;;10.90;75.80;;;;;;5065240;28;20245;-55
2021/04/13 03:22:01;;;;;;;11.75;10.65;;;10.90;77.00;;;;;;5060746;28;20387;-53
2021/04/13 03:24:33;;;;;;;11.35;10.25;;;10.90;77.60;;;;;;5065916;28;20626;-50
2021/04/13 03:27:02;;;;;;;10.77;9.68;;;10.90;78.40;;;;;;5053051;28;20036;-53
2021/04/13 03:29:53;;;;;;;11.23;10.13;;;10.90;78.00;;;;;;5068078;28;20089;-54
2021/04/13 03:32:24;;;;;;;10.10;9.10;;;11.00;81.10;;;;;;5042110;28;20626;-49
2021/04/13 03:34:50;;;;;;;10.73;9.73;;;10.90;79.60;;;;;;5064885;28;20112;-51
2021/04/13 03:37:17;;;;;;;11.85;10.43;;;11.00;80.20;;;;;;5052352;28;20454;-51
2021/04/13 03:39:45;;;;;;;10.48;9.52;;;11.10;79.20;;;;;;5070599;28;20059;-52
2021/04/13 03:42:21;;;;;;;11.20;10.10;;;11.20;78.90;;;;;;5066308;28;20032;-50
2021/04/13 03:44:49;;;;;;;10.10;9.10;;;11.40;79.40;;;;;;5060453;28;20043;-50
2021/04/13 03:47:20;;;;;;;12.13;11.02;;;11.30;78.30;;;;;;5064156;28;20101;-50
2021/04/13 03:49:46;;;;;;;13.30;11.90;;;11.30;79.30;;;;;;5054172;28;20045;-50
2021/04/13 03:52:41;;;;;;;11.57;10.48;;;11.30;79.80;;;;;;5067488;28;20040;-49
2021/04/13 03:55:17;;;;;;;12.90;11.57;;;11.30;82.60;;;;;;5033552;28;20094;-53
2021/04/13 03:57:42;;;;;;;11.80;10.60;;;11.30;81.20;;;;;;5060803;28;20478;-52
2021/04/13 04:00:13;;;;;;;11.88;10.70;;;11.20;80.10;;;;;;5039547;28;20043;-49
2021/04/13 04:02:39;;;;;;;11.95;10.85;;;11.10;81.00;;;;;;5067272;28;20044;-52
2021/04/13 04:05:18;;;;;;;13.30;12.00;;;11.20;80.30;;;;;;5045170;28;20102;-50
2021/04/13 04:08:24;;;;;;;13.70;12.40;;;11.20;81.30;;;;;;5068849;28;20032;-49
2021/04/13 04:10:51;;;;;;;13.98;11.80;;;11.20;82.20;;;;;;5049037;28;21963;-54
2021/04/13 04:13:17;;;;;;;13.60;12.23;;;11.00;81.20;;;;;;5063852;28;20490;-51
2021/04/13 04:16:12;;;;;;;14.77;13.40;;;11.10;80.80;;;;;;5061583;28;20114;-52
2021/04/13 04:18:50;;;;;;;14.45;12.95;;;11.10;81.70;;;;;;5071238;28;20036;-52
2021/04/13 04:21:21;;;;;;;14.88;13.40;;;11.10;81.70;;;;;;5054190;28;20036;-51
2021/04/13 04:23:56;;;;;;;15.35;13.95;;;11.20;82.50;;;;;;5076245;28;20043;-50
2021/04/13 04:26:28;;;;;;;15.23;13.82;;;11.10;82.50;;;;;;5064904;28;20439;-51
2021/04/13 04:29:15;;;;;;;14.38;12.98;;;11.10;82.90;;;;;;5066103;28;20082;-50
2021/04/13 04:31:43;;;;;;;16.83;15.02;;;11.10;83.90;;;;;;5067723;28;20052;-54
2021/04/13 04:34:14;;;;;;;15.15;13.48;;;11.20;82.30;;;;;;5060835;28;21007;-50
2021/04/13 04:36:48;;;;;;;15.75;14.25;;;11.20;83.60;;;;;;5066273;28;20739;-50
2021/04/13 04:39:31;;;;;;;16.38;14.68;;;11.20;83.40;;;;;;5066202;28;20048;-51
2021/04/13 04:42:12;;;;;;;14.80;13.40;;;11.20;83.50;;;;;;5075677;28;20060;-53
2021/04/13 04:44:39;;;;;;;16.27;14.68;;;11.10;83.70;;;;;;5072276;28;20176;-51
2021/04/13 04:47:44;;;;;;;15.98;14.30;;;11.20;83.10;;;;;;5073492;28;20043;-55
2021/04/13 04:50:14;;;;;;;16.38;14.40;;;11.30;84.60;;;;;;4959520;28;20057;-54
2021/04/13 04:52:39;;;;;;;15.85;14.23;;;11.30;83.20;;;;;;5000238;28;20053;-53
2021/04/13 04:55:06;;;;;;;16.30;14.50;;;11.30;83.30;;;;;;5039331;28;20044;-50
2021/04/13 04:57:32;;;;;;;15.07;13.48;;;11.30;83.10;;;;;;5065924;28;20040;-54
2021/04/13 04:59:57;;;;;;;16.15;14.45;;;11.30;83.20;;;;;;5067370;28;20143;-50
2021/04/13 05:02:23;;;;;;;17.83;14.35;;;11.20;83.00;;;;;;5065096;28;20565;-53
2021/04/13 05:04:49;;;;;;;15.82;13.85;;;11.20;82.90;;;;;;5063343;28;20048;-51
2021/04/13 05:07:14;;;;;;;18.20;15.23;;;11.20;82.60;;;;;;5054701;28;20124;-53
2021/04/13 05:09:40;;;;;;;16.88;14.98;;;11.20;82.70;;;;;;5053352;28;20524;-52
2021/04/13 05:12:07;;;;;;;20.00;16.00;;;11.30;82.50;;;;;;5072014;28;20094;-54
2021/04/13 05:14:33;;;;;;;19.27;17.13;;;11.40;82.50;;;;;;5062224;28;20033;-51
2021/04/13 05:16:58;;;;;;;18.40;16.50;;;11.30;83.10;;;;;;5061833;28;20037;-51
2021/04/13 05:19:24;;;;;;;21.38;16.83;;;11.20;82.50;;;;;;5062328;28;20059;-54
2021/04/13 05:21:50;;;;;;;22.30;17.40;;;11.20;82.90;;;;;;5061333;28;20120;-51
2021/04/13 05:24:15;;;;;;;19.50;16.55;;;11.20;83.00;;;;;;5063394;28;20044;-55
2021/04/13 05:26:41;;;;;;;20.58;17.80;;;11.10;83.30;;;;;;5058320;28;20071;-54
2021/04/13 05:29:07;;;;;;;21.95;17.88;;;11.20;83.40;;;;;;5071809;28;20068;-50
2021/04/13 05:31:39;;;;;;;20.52;18.33;;;11.20;83.10;;;;;;5062806;28;20136;-51
2021/04/13 05:34:07;;;;;;;19.42;16.48;;;11.20;83.40;;;;;;5059600;28;20082;-51
2021/04/13 05:36:33;;;;;;;21.17;16.70;;;11.20;83.30;;;;;;5062263;28;20028;-56
2021/04/13 05:38:59;;;;;;;20.23;17.15;;;11.30;83.00;;;;;;5056368;28;20114;-55
2021/04/13 05:41:27;;;;;;;19.50;16.10;;;11.30;83.30;;;;;;5071295;28;20043;-53
2021/04/13 05:43:53;;;;;;;19.27;16.23;;;11.40;82.00;;;;;;5065406;28;21640;-51
2021/04/13 05:46:24;;;;;;;19.45;17.13;;;11.40;81.70;;;;;;5070268;28;20036;-50
2021/04/13 05:48:51;;;;;;;18.63;15.40;;;11.40;81.10;;;;;;5054176;28;20112;-54
2021/04/13 05:51:16;;;;;;;17.98;15.70;;;11.50;80.40;;;;;;5059841;28;20037;-51
2021/04/13 05:53:42;;;;;;;18.02;15.63;;;11.50;80.80;;;;;;5069030;28;20039;-51
2021/04/13 05:56:11;;;;;;;20.90;17.20;;;11.50;80.10;;;;;;5076809;28;20032;-54
2021/04/13 05:58:45;;;;;;;22.55;17.02;;;11.50;79.50;;;;;;5067570;28;20119;-54
2021/04/13 06:01:11;;;;;;;19.52;16.67;;;11.60;79.30;;;;;;5070467;28;20040;-51
2021/04/13 06:03:37;;;;;;;17.80;15.48;;;11.50;78.80;;;;;;5055542;28;20043;-53
2021/04/13 06:06:03;;;;;;;16.73;14.13;;;11.60;78.60;;;;;;5064980;28;20033;-54
2021/04/13 06:08:29;;;;;;;13.52;12.07;;;11.60;79.80;;;;;;5064763;28;20051;-55
2021/04/13 06:10:56;;;;;;;16.23;11.80;;;11.60;78.60;;;;;;5078347;28;20102;-54
2021/04/13 06:13:24;;;;;;;14.40;11.82;;;11.60;77.60;;;;;;5060280;28;20101;-52
2021/04/13 06:15:52;;;;;;;15.93;11.77;;;11.70;75.90;;;;;;5070311;28;20077;-54
2021/04/13 06:18:18;;;;;;;12.68;10.27;;;11.60;74.50;;;;;;5059478;28;20127;-52
2021/04/13 06:20:44;;;;;;;9.05;6.80;;;11.60;73.80;;;;;;5057651;28;20052;-50
2021/04/13 06:23:10;;;;;;;13.68;10.05;;;11.60;70.90;;;;;;5066792;28;20046;-54
2021/04/13 06:25:35;;;;;;;14.00;10.63;;;11.60;70.80;;;;;;5056418;28;20033;-54
2021/04/13 06:28:02;;;;;;;16.92;9.88;;;11.50;68.60;;;;;;5058466;28;20106;-53
2021/04/13 06:30:29;;;;;;;16.98;10.52;;;11.40;65.80;;;;;;5055513;28;20064;-55
2021/04/13 06:32:54;;;;;;;12.07;9.35;;;11.50;66.30;;;;;;5047370;28;20489;-53
2021/04/13 06:35:21;;;;;;;14.75;8.90;;;11.50;65.20;;;;;;5060440;28;20037;-52
2021/04/13 06:37:49;;;;;;;9.00;6.82;;;11.50;63.10;;;;;;5061814;28;20037;-53
2021/04/13 06:40:53;;;;;;;6.82;4.47;;;11.40;60.20;;;;;;5063688;28;20036;-50
2021/04/13 06:43:40;;;;;;;9.10;4.53;;;11.40;52.50;;;;;;4991294;28;20055;-54
2021/04/13 06:46:14;;;;;;;9.25;5.03;;;11.40;56.10;;;;;;5066512;28;20067;-52
2021/04/13 06:49:02;;;;;;;6.50;4.68;;;11.40;54.30;;;;;;5076902;28;20055;-53
2021/04/13 06:51:39;;;;;;;5.13;3.92;;;11.40;52.70;;;;;;5064288;28;20051;-55
2021/04/13 06:54:18;;;;;;;6.15;4.18;;;11.30;45.10;;;;;;5064049;28;20047;-52
2021/04/13 06:57:15;;;;;;;7.43;4.30;;;11.30;46.60;;;;;;5055965;28;20033;-53
2021/04/13 07:00:02;;;;;;;8.55;4.35;;;11.30;49.50;;;;;;5067776;28;20081;-52
2021/04/13 07:03:06;;;;;;;8.73;6.15;;;11.40;52.00;;;;;;5063002;28;20044;-55
2021/04/13 07:05:40;;;;;;;14.95;9.02;;;11.40;57.20;;;;;;5016699;28;20119;-52
2021/04/13 07:08:16;;;;;;;8.90;7.65;;;11.50;59.30;;;;;;5068716;28;20214;-53
2021/04/13 07:10:49;;;;;;;12.75;9.02;;;11.50;59.40;;;;;;5073239;28;20044;-53
2021/04/13 07:13:38;;;;;;;9.40;6.63;;;11.50;61.80;;;;;;5074575;28;20049;-53
2021/04/13 07:16:15;;;;;;;6.93;5.40;;;11.50;58.30;;;;;;5050707;28;20169;-55
2021/04/13 07:18:47;;;;;;;14.63;7.18;;;11.50;54.50;;;;;;5058331;28;20052;-52
2021/04/13 07:21:25;;;;;;;8.23;6.00;;;11.60;57.70;;;;;;5069062;28;20090;-53
2021/04/13 07:23:57;;;;;;;10.70;7.07;;;11.60;56.80;;;;;;5076050;28;20124;-54
2021/04/13 07:26:38;;;;;;;7.72;5.13;;;11.60;58.00;;;;;;5078487;28;20541;-54
2021/04/13 07:29:27;;;;;;;8.30;6.07;;;11.70;53.40;;;;;;5074447;28;20040;-52
2021/04/13 07:32:14;;;;;;;10.63;6.70;;;11.70;56.80;;;;;;5043121;28;20497;-51
2021/04/13 07:34:41;;;;;;;8.50;6.35;;;11.70;56.80;;;;;;5076169;28;20115;-54
2021/04/13 07:37:17;;;;;;;8.73;5.75;;;11.70;57.20;;;;;;5070046;28;20116;-53
2021/04/13 07:39:47;;;;;;;6.55;5.05;;;11.70;53.20;;;;;;5062543;28;20137;-54
2021/04/13 07:42:21;;;;;;;8.73;6.13;;;11.80;55.90;;;;;;5067098;28;20559;-53
2021/04/13 07:44:50;;;;;;;4.67;4.17;;;11.90;55.90;;;;;;5052926;28;20108;-54
2021/04/13 07:47:26;;;;;;;8.15;6.00;;;11.90;53.80;;;;;;5062108;28;20025;-49
2021/04/13 07:49:57;;;;;;;5.72;5.10;;;11.90;54.20;;;;;;5070289;28;20058;-50
2021/04/13 07:52:28;;;;;;;6.60;5.13;;;12.00;54.10;;;;;;5061741;28;20481;-54
2021/04/13 07:55:21;;;;;;;7.75;5.40;;;12.00;53.70;;;;;;5085344;28;20062;-52
2021/04/13 07:57:57;;;;;;;6.47;5.25;;;12.00;50.70;;;;;;5012661;28;20047;-50
2021/04/13 08:00:28;;;;;;;8.25;4.80;;;12.10;50.00;;;;;;5063487;28;20094;-51
2021/04/13 08:03:24;;;;;;;8.95;6.03;;;12.10;51.00;;;;;;5064229;28;22505;-54
2021/04/13 08:05:53;;;;;;;12.15;10.70;;;12.00;53.50;;;;;;5041147;28;20068;-51
2021/04/13 08:08:30;;;;;;;14.48;10.88;;;12.10;60.70;;;;;;5076135;28;20493;-52
2021/04/13 08:11:20;;;;;;;13.18;11.68;;;12.10;66.80;;;;;;5070796;28;20052;-53
2021/04/13 08:13:50;;;;;;;10.63;9.20;;;12.20;69.80;;;;;;5046885;28;20044;-52
2021/04/13 08:16:38;;;;;;;9.85;8.77;;;12.10;67.90;;;;;;5068506;28;20592;-54
2021/04/13 08:19:32;;;;;;;9.57;8.02;;;12.10;66.50;;;;;;5061144;28;20437;-54
2021/04/13 08:22:02;;;;;;;8.50;5.95;;;12.30;66.10;;;;;;5014045;28;20032;-54
2021/04/13 08:25:02;;;;;;;6.70;5.93;;;12.40;64.40;;;;;;5071612;28;20093;-56
2021/04/13 08:27:46;;;;;;;7.20;4.47;;;12.30;64.80;;;;;;5051473;28;20615;-55
2021/04/13 08:30:21;;;;;;;6.38;4.65;;;12.30;64.50;;;;;;5056192;28;20555;-54
2021/04/13 08:33:09;;;;;;;4.75;4.20;;;12.40;64.30;;;;;;5075429;28;20036;-53
2021/04/13 08:36:02;;;;;;;6.57;4.57;;;12.30;62.90;;;;;;5057160;28;20033;-52
2021/04/13 08:38:55;;;;;;;5.43;3.85;;;12.30;61.30;;;;;;5047897;28;20039;-53
2021/04/13 08:41:31;;;;;;;6.47;3.20;;;12.40;61.00;;;;;;5035091;28;20043;-52
2021/04/13 08:44:29;;;;;;;3.60;3.20;;;12.50;62.10;;;;;;5079086;28;20040;-52
2021/04/13 08:46:59;;;;;;;5.15;3.70;;;12.60;61.50;;;;;;5029923;28;20033;-51
2021/04/13 08:49:44;;;;;;;4.07;2.53;;;12.50;59.40;;;;;;5066026;28;20040;-53
2021/04/13 08:52:31;;;;;;;3.80;3.03;;;12.60;62.00;;;;;;5067497;28;20068;-50
2021/04/13 08:55:12;;;;;;;4.32;2.40;;;12.60;62.50;;;;;;5017905;28;20032;-53
2021/04/13 08:57:47;;;;;;;2.97;2.72;;;12.70;62.00;;;;;;5068606;28;20037;-51
2021/04/13 09:00:31;;;;;;;;;;;12.70;62.70;;;;;;5071668;28;20039;-53
2021/04/13 09:02:59;;;;;;;2.08;1.88;;;12.60;65.30;;;;;;5062901;28;19911;-53
2021/04/13 09:05:28;;;;;;;4.93;2.03;;;12.60;64.10;;;;;;5061568;28;20063;-54
2021/04/13 09:08:17;;;;;;;4.18;2.10;;;12.70;64.80;;;;;;5066491;28;20032;-53
2021/04/13 09:11:03;;;;;;;4.38;1.90;;;12.80;64.40;;;;;;5061598;28;20116;-53
2021/04/13 09:13:33;;;;;;;3.22;1.90;;;12.80;64.30;;;;;;5074258;28;20046;-54
2021/04/13 09:16:10;;;;;;;2.45;2.10;;;12.80;63.90;;;;;;5064387;28;20444;-51
2021/04/13 09:18:45;;;;;;;2.20;1.92;;;12.80;62.90;;;;;;5066645;28;20115;-51
2021/04/13 09:21:28;;;;;;;2.47;2.28;;;12.80;62.30;;;;;;5060812;28;20120;-50
2021/04/13 09:24:05;;;;;;;3.50;1.80;;;12.90;62.00;;;;;;5012827;28;20482;-53
2021/04/13 09:26:56;;;;;;;2.83;2.08;;;13.00;62.40;;;;;;5055620;28;20060;-55
2021/04/13 09:29:44;;;;;;;5.20;1.73;;;13.10;60.50;;;;;;5037036;28;20035;-55
2021/04/13 09:32:32;;;;;;;2.08;1.63;;;13.20;61.70;;;;;;5057083;28;20040;-53
2021/04/13 09:35:28;;;;;;;2.75;1.90;;;13.20;59.70;;;;;;5005749;28;20051;-55
2021/04/13 09:37:54;;;;;;;2.58;1.75;;;13.40;59.50;;;;;;5030652;28;20084;-55
2021/04/13 09:40:59;;;;;;;2.10;1.90;;;13.30;58.50;;;;;;5063955;28;20033;-53
2021/04/13 09:43:36;;;;;;;2.40;1.55;;;13.50;59.80;;;;;;5038938;28;20034;-52
2021/04/13 09:46:33;;;;;;;3.03;1.98;;;13.60;58.60;;;;;;5083532;28;20122;-53
2021/04/13 09:49:14;;;;;;;2.75;2.20;;;13.60;58.80;;;;;;5034106;28;20176;-54
2021/04/13 09:51:57;;;;;;;3.10;1.83;;;13.60;58.30;;;;;;5077195;28;20056;-55
2021/04/13 09:54:28;;;;;;;2.95;1.90;;;13.70;58.80;;;;;;5047712;28;20036;-54
2021/04/13 09:57:16;;;;;;;2.05;1.77;;;13.60;57.60;;;;;;5061148;28;20418;-52
2021/04/13 10:00:00;;;;;;;2.75;1.98;;;13.70;56.90;;;;;;5072338;28;20103;-53
2021/04/13 10:02:53;;;;;;;2.33;2.10;;;13.80;57.70;;;;;;5061064;28;20059;-54
2021/04/13 10:05:28;;;;;;;4.00;1.67;;;13.80;56.40;;;;;;5049966;28;20033;-54
2021/04/13 10:08:11;;;;;;;;;;;13.80;56.70;;;;;;5058249;28;20025;-54
2021/04/13 10:10:42;;;;;;;1.75;1.60;;;13.90;56.60;;;;;;5071550;28;19920;-57
2021/04/13 10:13:11;;;;;;;3.30;2.05;;;14.10;57.70;;;;;;5070975;28;20033;-53
2021/04/13 10:15:42;;;;;;;2.85;1.60;;;14.20;55.50;;;;;;5067062;28;20051;-53
2021/04/13 10:18:41;;;;;;;2.28;2.03;;;14.20;56.50;;;;;;5069595;28;20489;-56
2021/04/13 10:21:25;;;;;;;4.65;1.98;;;14.30;54.80;;;;;;5039679;28;20634;-54
2021/04/13 10:24:05;;;;;;;3.63;1.65;;;14.30;55.60;;;;;;5036385;28;20514;-54
2021/04/13 10:26:58;;;;;;;3.17;1.70;;;14.20;54.10;;;;;;5063298;28;20078;-51
2021/04/13 10:29:45;;;;;;;2.53;1.77;;;14.10;52.80;;;;;;5038310;28;20052;-52
2021/04/13 10:32:33;;;;;;;4.75;2.13;;;14.20;51.90;;;;;;5060348;28;20143;-52
2021/04/13 10:35:37;;;;;;;2.47;1.85;;;14.30;50.80;;;;;;5071902;28;20043;-54
2021/04/13 10:38:12;;;;;;;3.35;2.15;;;14.40;53.10;;;;;;5033690;28;20058;-52
2021/04/13 10:40:43;;;;;;;2.30;2.05;;;14.40;53.60;;;;;;5053637;28;20071;-54
2021/04/13 10:43:12;;;;;;;2.13;1.90;;;14.40;52.40;;;;;;5070074;28;20402;-55
2021/04/13 10:46:24;;;;;;;3.97;2.47;;;14.50;51.90;;;;;;5055057;28;20040;-53
2021/04/13 10:48:58;;;;;;;3.08;2.25;;;14.50;51.50;;;;;;4939442;28;20087;-52
2021/04/13 10:52:00;;;;;;;4.70;2.47;;;14.60;53.00;;;;;;5067406;28;20043;-51
2021/04/13 10:54:47;;;;;;;2.05;1.95;;;14.80;50.60;;;;;;5023717;28;20043;-52
2021/04/13 10:58:10;;;;;;;3.30;2.22;;;14.80;49.80;;;;;;5074708;28;20051;-56
2021/04/13 11:00:41;;;;;;;6.50;2.40;;;14.90;52.00;;;;;;4946723;28;20481;-53
2021/04/13 11:03:41;;;;;;;4.70;2.63;;;15.10;51.90;;;;;;4979944;28;20590;-54
2021/04/13 11:06:28;;;;;;;3.38;2.58;;;15.00;49.90;;;;;;5006879;28;20090;-57
2021/04/13 11:08:57;;;;;;;4.57;3.05;;;15.10;50.00;;;;;;5036652;28;20029;-50
2021/04/13 11:11:47;;;;;;;4.55;3.78;;;15.30;50.40;;;;;;5046318;28;20130;-56
2021/04/13 11:14:55;;;;;;;7.32;5.55;;;15.30;49.90;;;;;;5053686;28;20040;-52
2021/04/13 11:17:30;;;;;;;4.32;3.42;;;15.50;50.80;;;;;;5007018;28;20049;-54
2021/04/13 11:20:15;;;;;;;5.28;3.05;;;15.60;51.00;;;;;;5071645;28;20078;-51
2021/04/13 11:23:01;;;;;;;2.70;2.50;;;15.90;49.80;;;;;;5084660;28;20527;-53
2021/04/13 11:25:45;;;;;;;2.30;2.10;;;15.80;50.00;;;;;;5052961;28;20065;-55
2021/04/13 11:28:29;;;;;;;2.40;2.20;;;15.70;48.40;;;;;;5071477;28;20505;-54
2021/04/13 11:31:14;;;;;;;5.18;2.28;;;15.70;47.40;;;;;;5060290;28;20064;-56
2021/04/13 11:34:00;;;;;;;4.10;2.95;;;15.80;49.00;;;;;;5077615;28;20051;-53
2021/04/13 11:37:03;;;;;;;3.55;2.42;;;15.90;46.60;;;;;;5049847;28;20036;-54
2021/04/13 11:40:16;;;;;;;3.90;2.08;;;16.00;44.50;;;;;;5046857;28;20044;-57
2021/04/13 11:42:42;;;;;;;3.55;2.10;;;16.40;45.00;;;;;;5009833;28;20044;-50
2021/04/13 11:45:08;;;;;;;3.30;2.35;;;;;;;;;;5074130;28;20041;-53
2021/04/13 11:48:00;;;;;;;3.08;2.22;;;19.60;39.80;;;;;;5075846;28;20450;-53
2021/04/13 11:50:32;;;;;;;2.28;1.92;;;23.10;32.80;;;;;;5035224;28;20127;-51
2021/04/13 11:53:10;;;;;;;2.40;2.20;;;25.80;29.60;;;;;;5059873;28;20036;-55
2021/04/13 11:55:48;;;;;;;4.97;3.08;;;29.00;23.20;;;;;;5063742;28;20516;-52
2021/04/13 11:58:32;;;;;;;2.58;2.25;;;31.10;22.90;;;;;;5056727;28;20029;-56
2021/04/13 12:01:12;;;;;;;3.25;2.05;;;32.10;20.40;;;;;;5068003;28;20084;-55
2021/04/13 12:03:41;;;;;;;2.42;2.22;;;33.70;19.40;;;;;;5061140;28;20055;-55
2021/04/13 12:06:45;;;;;;;2.60;2.40;;;33.00;18.30;;;;;;5074897;28;20394;-55
2021/04/13 12:09:31;;;;;;;2.00;1.90;;;29.80;18.20;;;;;;5029901;28;20132;-56
2021/04/13 12:11:57;;;;;;;2.38;1.98;;;30.20;19.20;;;;;;5013011;28;20049;-54
2021/04/13 12:14:36;;;;;;;3.65;2.78;;;29.30;18.80;;;;;;5067532;28;20083;-55
2021/04/13 12:17:06;;;;;;;4.88;2.45;;;29.50;18.80;;;;;;5061315;28;21466;-56
2021/04/13 12:19:32;;;;;;;2.17;1.90;;;29.50;19.90;;;;;;5064297;28;20399;-53
2021/04/13 12:22:19;;;;;;;2.47;2.28;;;28.20;20.30;;;;;;5064268;28;20052;-53
2021/04/13 12:24:47;;;;;;;2.58;2.38;;;25.40;21.90;;;;;;5059967;28;20178;-54
2021/04/13 12:27:35;;;;;;;2.40;2.20;;;24.40;23.40;;;;;;5073104;28;20032;-53
2021/04/13 12:30:23;;;;;;;4.97;3.00;;;22.20;23.90;;;;;;5058100;28;21048;-53
2021/04/13 12:32:49;;;;;;;3.85;2.50;;;21.30;25.40;;;;;;5045728;28;20037;-55
2021/04/13 12:35:46;;;;;;;3.65;2.50;;;20.30;27.60;;;;;;5064429;28;20093;-52
2021/04/13 12:38:43;;;;;;;4.90;2.90;;;21.20;28.00;;;;;;5056335;28;20075;-56
2021/04/13 12:41:29;;;;;;;2.70;2.50;;;21.00;27.60;;;;;;5069961;28;20037;-53
2021/04/13 12:44:00;;;;;;;2.90;2.58;;;21.20;27.60;;;;;;5020654;28;20521;-55
2021/04/13 12:46:49;;;;;;;2.55;2.42;;;22.60;26.50;;;;;;5073891;28;20040;-56
2021/04/13 12:49:15;;;;;;;2.88;2.67;;;24.30;24.90;;;;;;5072165;28;20043;-53
2021/04/13 12:52:04;;;;;;;3.08;2.78;;;24.90;22.30;;;;;;5059915;28;20040;-57
2021/04/13 12:54:44;;;;;;;2.60;2.40;;;26.10;21.80;;;;;;5011468;28;20054;-57
2021/04/13 12:57:16;;;;;;;3.40;2.60;;;26.70;20.80;;;;;;5058092;28;20032;-55
2021/04/13 12:59:42;;;;;;;2.75;2.55;;;29.60;20.50;;;;;;5065053;28;20094;-56
2021/04/13 13:02:34;;;;;;;3.38;3.08;;;30.80;19.70;;;;;;5059456;28;20443;-57
2021/04/13 13:05:01;;;;;;;2.85;2.58;;;32.10;16.80;;;;;;5052859;28;20366;-57
2021/04/13 13:07:30;;;;;;;5.15;3.08;;;;;;;;;;5067897;28;20028;-52
2021/04/13 13:10:08;;;;;;;2.70;2.50;;;33.90;16.90;;;;;;5057487;28;20401;-57
2021/04/13 13:12:35;;;;;;;3.85;3.38;;;32.40;19.00;;;;;;5074380;28;20036;-57
2021/04/13 13:15:11;;;;;;;2.97;2.53;;;28.80;18.90;;;;;;5071890;28;20040;-56
2021/04/13 13:17:49;;;;;;;3.28;2.95;;;28.70;19.00;;;;;;5069986;28;20036;-54
2021/04/13 13:20:28;;;;;;;4.68;2.78;;;28.80;20.20;;;;;;5068111;28;20060;-58
2021/04/13 13:22:54;;;;;;;2.90;2.70;;;28.10;20.80;;;;;;5066892;28;20806;-57
2021/04/13 13:25:29;;;;;;;2.95;2.75;;;27.30;21.90;;;;;;5060097;28;20040;-56
2021/04/13 13:28:12;;;;;;;5.70;3.22;;;28.40;20.80;;;;;;5049968;28;20496;-53
2021/04/13 13:30:38;;;;;;;4.38;3.00;;;27.50;20.50;;;;;;5060696;28;20048;-54
2021/04/13 13:33:04;;;;;;;3.58;2.85;;;26.80;22.30;;;;;;5073644;28;20028;-53
2021/04/13 13:35:30;;;;;;;2.92;2.72;;;27.10;21.90;;;;;;5064280;28;20040;-59
2021/04/13 13:37:59;;;;;;;28.95;26.38;;;27.20;21.80;;;;;;5055265;28;20091;-56